sensor_id;sensor_type;location;lat;lon;timestamp;P1;durP1;ratioP1;P2;durP2;ratioP2
66212;SDS011;53015;50.046;8.238;2023-07-29T00:00:26;5.97;;;2.00;;
66212;SDS011;53015;50.046;8.238;2023-07-29T00:02:51;7.40;;;2.10;;
66212;SDS011;53015;50.046;8.238;2023-07-29T00:05:16;6.15;;;2.10;;
66212;SDS011;53015;50.046;8.238;2023-07-29T00:07:42;4.70;;;2.10;;
66212;SDS011;53015;50.046;8.238;2023-07-29T00:10:08;4.53;;;2.22;;
66212;SDS011;53015;50.046;8.238;2023-07-29T00:12:33;4.95;;;2.50;;
66212;SDS011;53015;50.046;8.238;2023-07-29T00:14:59;3.28;;;1.80;;
66212;SDS011;53015;50.046;8.238;2023-07-29T00:17:26;3.70;;;2.08;;
66212;SDS011;53015;50.046;8.238;2023-07-29T00:19:51;6.97;;;2.05;;
66212;SDS011;53015;50.046;8.238;2023-07-29T00:22:17;4.88;;;2.10;;
66212;SDS011;53015;50.046;8.238;2023-07-29T00:24:42;3.65;;;2.00;;
66212;SDS011;53015;50.046;8.238;2023-07-29T00:27:08;4.85;;;2.13;;
66212;SDS011;53015;50.046;8.238;2023-07-29T00:29:33;5.03;;;2.20;;
66212;SDS011;53015;50.046;8.238;2023-07-29T00:31:58;4.50;;;2.35;;
66212;SDS011;53015;50.046;8.238;2023-07-29T00:34:25;6.30;;;2.17;;
66212;SDS011;53015;50.046;8.238;2023-07-29T00:36:51;7.78;;;1.90;;
66212;SDS011;53015;50.046;8.238;2023-07-29T00:39:16;5.07;;;2.20;;
66212;SDS011;53015;50.046;8.238;2023-07-29T00:41:42;5.07;;;2.08;;
66212;SDS011;53015;50.046;8.238;2023-07-29T00:44:07;5.85;;;2.10;;
66212;SDS011;53015;50.046;8.238;2023-07-29T00:46:33;4.07;;;2.13;;
66212;SDS011;53015;50.046;8.238;2023-07-29T00:49:00;3.80;;;2.40;;
66212;SDS011;53015;50.046;8.238;2023-07-29T00:51:28;5.47;;;2.30;;
66212;SDS011;53015;50.046;8.238;2023-07-29T00:53:53;5.20;;;2.30;;
66212;SDS011;53015;50.046;8.238;2023-07-29T00:56:19;6.03;;;2.10;;
66212;SDS011;53015;50.046;8.238;2023-07-29T00:58:45;6.45;;;2.25;;
66212;SDS011;53015;50.046;8.238;2023-07-29T01:01:11;3.50;;;2.22;;
66212;SDS011;53015;50.046;8.238;2023-07-29T01:03:37;4.30;;;2.35;;
66212;SDS011;53015;50.046;8.238;2023-07-29T01:06:06;5.78;;;2.30;;
66212;SDS011;53015;50.046;8.238;2023-07-29T01:08:42;5.30;;;2.30;;
66212;SDS011;53015;50.046;8.238;2023-07-29T01:11:16;4.70;;;2.67;;
66212;SDS011;53015;50.046;8.238;2023-07-29T01:13:50;11.52;;;2.50;;
66212;SDS011;53015;50.046;8.238;2023-07-29T01:16:24;4.15;;;2.47;;
66212;SDS011;53015;50.046;8.238;2023-07-29T01:18:55;4.43;;;2.50;;
66212;SDS011;53015;50.046;8.238;2023-07-29T01:21:20;5.95;;;2.85;;
66212;SDS011;53015;50.046;8.238;2023-07-29T01:23:48;6.40;;;2.75;;
66212;SDS011;53015;50.046;8.238;2023-07-29T01:26:17;6.05;;;2.83;;
66212;SDS011;53015;50.046;8.238;2023-07-29T01:28:43;4.35;;;2.60;;
66212;SDS011;53015;50.046;8.238;2023-07-29T01:31:10;8.65;;;2.47;;
66212;SDS011;53015;50.046;8.238;2023-07-29T01:33:39;2.85;;;2.00;;
66212;SDS011;53015;50.046;8.238;2023-07-29T01:36:10;2.92;;;2.00;;
66212;SDS011;53015;50.046;8.238;2023-07-29T01:38:41;7.63;;;3.13;;
66212;SDS011;53015;50.046;8.238;2023-07-29T01:41:09;7.57;;;2.38;;
66212;SDS011;53015;50.046;8.238;2023-07-29T01:43:35;4.32;;;2.25;;
66212;SDS011;53015;50.046;8.238;2023-07-29T01:46:01;7.03;;;2.90;;
66212;SDS011;53015;50.046;8.238;2023-07-29T01:48:27;6.05;;;2.90;;
66212;SDS011;53015;50.046;8.238;2023-07-29T01:50:52;7.22;;;2.88;;
66212;SDS011;53015;50.046;8.238;2023-07-29T01:53:18;5.53;;;2.92;;
66212;SDS011;53015;50.046;8.238;2023-07-29T01:55:44;5.95;;;2.85;;
66212;SDS011;53015;50.046;8.238;2023-07-29T01:58:10;8.52;;;2.83;;
66212;SDS011;53015;50.046;8.238;2023-07-29T02:00:36;3.90;;;2.45;;
66212;SDS011;53015;50.046;8.238;2023-07-29T02:03:01;3.60;;;2.38;;
66212;SDS011;53015;50.046;8.238;2023-07-29T02:05:27;7.18;;;2.80;;
66212;SDS011;53015;50.046;8.238;2023-07-29T02:07:53;5.43;;;2.50;;
66212;SDS011;53015;50.046;8.238;2023-07-29T02:10:18;4.40;;;2.55;;
66212;SDS011;53015;50.046;8.238;2023-07-29T02:12:44;6.10;;;2.63;;
66212;SDS011;53015;50.046;8.238;2023-07-29T02:15:11;5.57;;;2.33;;
66212;SDS011;53015;50.046;8.238;2023-07-29T02:17:36;7.13;;;2.58;;
66212;SDS011;53015;50.046;8.238;2023-07-29T02:20:02;3.67;;;2.38;;
66212;SDS011;53015;50.046;8.238;2023-07-29T02:22:28;5.00;;;2.80;;
66212;SDS011;53015;50.046;8.238;2023-07-29T02:24:53;3.40;;;2.30;;
66212;SDS011;53015;50.046;8.238;2023-07-29T02:27:19;3.03;;;2.50;;
66212;SDS011;53015;50.046;8.238;2023-07-29T02:29:44;5.80;;;2.60;;
66212;SDS011;53015;50.046;8.238;2023-07-29T02:32:11;5.60;;;2.70;;
66212;SDS011;53015;50.046;8.238;2023-07-29T02:34:37;4.85;;;2.80;;
66212;SDS011;53015;50.046;8.238;2023-07-29T02:37:02;3.38;;;2.53;;
66212;SDS011;53015;50.046;8.238;2023-07-29T02:39:28;5.25;;;2.97;;
66212;SDS011;53015;50.046;8.238;2023-07-29T02:41:53;7.68;;;3.00;;
66212;SDS011;53015;50.046;8.238;2023-07-29T02:44:19;7.72;;;2.70;;
66212;SDS011;53015;50.046;8.238;2023-07-29T02:46:44;5.05;;;3.13;;
66212;SDS011;53015;50.046;8.238;2023-07-29T02:49:11;3.30;;;2.80;;
66212;SDS011;53015;50.046;8.238;2023-07-29T02:51:37;4.32;;;2.97;;
66212;SDS011;53015;50.046;8.238;2023-07-29T02:54:02;5.70;;;3.22;;
66212;SDS011;53015;50.046;8.238;2023-07-29T02:56:28;5.18;;;3.15;;
66212;SDS011;53015;50.046;8.238;2023-07-29T02:58:53;8.77;;;3.88;;
66212;SDS011;53015;50.046;8.238;2023-07-29T03:01:19;8.43;;;3.35;;
66212;SDS011;53015;50.046;8.238;2023-07-29T03:03:44;4.10;;;3.17;;
66212;SDS011;53015;50.046;8.238;2023-07-29T03:06:13;6.53;;;3.20;;
66212;SDS011;53015;50.046;8.238;2023-07-29T03:08:39;6.03;;;2.75;;
66212;SDS011;53015;50.046;8.238;2023-07-29T03:11:05;6.72;;;3.00;;
66212;SDS011;53015;50.046;8.238;2023-07-29T03:13:32;6.53;;;3.03;;
66212;SDS011;53015;50.046;8.238;2023-07-29T03:16:04;5.00;;;2.97;;
66212;SDS011;53015;50.046;8.238;2023-07-29T03:18:30;9.70;;;3.47;;
66212;SDS011;53015;50.046;8.238;2023-07-29T03:20:55;4.25;;;3.67;;
66212;SDS011;53015;50.046;8.238;2023-07-29T03:23:22;7.63;;;4.10;;
66212;SDS011;53015;50.046;8.238;2023-07-29T03:25:48;7.70;;;4.07;;
66212;SDS011;53015;50.046;8.238;2023-07-29T03:28:13;5.75;;;4.00;;
66212;SDS011;53015;50.046;8.238;2023-07-29T03:30:39;4.60;;;4.20;;
66212;SDS011;53015;50.046;8.238;2023-07-29T03:33:05;4.40;;;3.75;;
66212;SDS011;53015;50.046;8.238;2023-07-29T03:35:30;4.80;;;3.80;;
66212;SDS011;53015;50.046;8.238;2023-07-29T03:37:56;4.85;;;3.47;;
66212;SDS011;53015;50.046;8.238;2023-07-29T03:40:23;7.85;;;3.65;;
66212;SDS011;53015;50.046;8.238;2023-07-29T03:42:48;5.90;;;3.38;;
66212;SDS011;53015;50.046;8.238;2023-07-29T03:45:14;3.97;;;3.50;;
66212;SDS011;53015;50.046;8.238;2023-07-29T03:47:40;5.68;;;3.83;;
66212;SDS011;53015;50.046;8.238;2023-07-29T03:50:05;5.00;;;3.88;;
66212;SDS011;53015;50.046;8.238;2023-07-29T03:52:31;6.50;;;4.82;;
66212;SDS011;53015;50.046;8.238;2023-07-29T03:54:56;6.43;;;4.32;;
66212;SDS011;53015;50.046;8.238;2023-07-29T03:57:23;5.70;;;4.30;;
66212;SDS011;53015;50.046;8.238;2023-07-29T03:59:49;12.18;;;4.72;;
66212;SDS011;53015;50.046;8.238;2023-07-29T04:02:14;5.25;;;4.25;;
66212;SDS011;53015;50.046;8.238;2023-07-29T04:04:40;6.35;;;4.18;;
66212;SDS011;53015;50.046;8.238;2023-07-29T04:07:05;6.72;;;4.07;;
66212;SDS011;53015;50.046;8.238;2023-07-29T04:09:31;5.75;;;3.90;;
66212;SDS011;53015;50.046;8.238;2023-07-29T04:11:56;6.15;;;4.30;;
66212;SDS011;53015;50.046;8.238;2023-07-29T04:14:23;10.20;;;4.72;;
66212;SDS011;53015;50.046;8.238;2023-07-29T04:16:48;7.13;;;3.92;;
66212;SDS011;53015;50.046;8.238;2023-07-29T04:19:14;6.40;;;4.40;;
66212;SDS011;53015;50.046;8.238;2023-07-29T04:21:39;5.18;;;3.97;;
66212;SDS011;53015;50.046;8.238;2023-07-29T04:24:05;9.75;;;4.00;;
66212;SDS011;53015;50.046;8.238;2023-07-29T04:26:30;7.50;;;3.90;;
66212;SDS011;53015;50.046;8.238;2023-07-29T04:28:56;7.72;;;4.30;;
66212;SDS011;53015;50.046;8.238;2023-07-29T04:31:23;6.50;;;4.28;;
66212;SDS011;53015;50.046;8.238;2023-07-29T04:33:48;6.70;;;3.63;;
66212;SDS011;53015;50.046;8.238;2023-07-29T04:36:14;6.72;;;3.97;;
66212;SDS011;53015;50.046;8.238;2023-07-29T04:38:39;14.10;;;4.90;;
66212;SDS011;53015;50.046;8.238;2023-07-29T04:41:04;6.25;;;4.50;;
66212;SDS011;53015;50.046;8.238;2023-07-29T04:43:30;8.40;;;4.25;;
66212;SDS011;53015;50.046;8.238;2023-07-29T04:45:56;6.88;;;3.95;;
66212;SDS011;53015;50.046;8.238;2023-07-29T04:48:23;5.78;;;4.22;;
66212;SDS011;53015;50.046;8.238;2023-07-29T04:50:49;4.68;;;3.88;;
66212;SDS011;53015;50.046;8.238;2023-07-29T04:53:14;5.25;;;4.18;;
66212;SDS011;53015;50.046;8.238;2023-07-29T04:55:41;4.55;;;3.97;;
66212;SDS011;53015;50.046;8.238;2023-07-29T04:58:06;5.90;;;3.80;;
66212;SDS011;53015;50.046;8.238;2023-07-29T05:00:32;5.78;;;3.90;;
66212;SDS011;53015;50.046;8.238;2023-07-29T05:02:57;8.93;;;3.80;;
66212;SDS011;53015;50.046;8.238;2023-07-29T05:05:24;6.57;;;3.95;;
66212;SDS011;53015;50.046;8.238;2023-07-29T05:07:50;5.30;;;3.65;;
66212;SDS011;53015;50.046;8.238;2023-07-29T05:10:15;5.72;;;3.63;;
66212;SDS011;53015;50.046;8.238;2023-07-29T05:12:41;11.07;;;3.92;;
66212;SDS011;53015;50.046;8.238;2023-07-29T05:15:07;8.57;;;4.13;;
66212;SDS011;53015;50.046;8.238;2023-07-29T05:17:33;8.13;;;4.03;;
66212;SDS011;53015;50.046;8.238;2023-07-29T05:19:58;9.82;;;3.70;;
66212;SDS011;53015;50.046;8.238;2023-07-29T05:22:25;4.95;;;3.65;;
66212;SDS011;53015;50.046;8.238;2023-07-29T05:24:51;10.10;;;3.35;;
66212;SDS011;53015;50.046;8.238;2023-07-29T05:27:16;7.50;;;3.65;;
66212;SDS011;53015;50.046;8.238;2023-07-29T05:29:42;4.72;;;2.90;;
66212;SDS011;53015;50.046;8.238;2023-07-29T05:32:07;8.25;;;3.10;;
66212;SDS011;53015;50.046;8.238;2023-07-29T05:34:33;4.53;;;3.42;;
66212;SDS011;53015;50.046;8.238;2023-07-29T05:36:58;4.00;;;2.95;;
66212;SDS011;53015;50.046;8.238;2023-07-29T05:39:25;6.20;;;2.97;;
66212;SDS011;53015;50.046;8.238;2023-07-29T05:41:51;5.07;;;3.00;;
66212;SDS011;53015;50.046;8.238;2023-07-29T05:44:16;3.67;;;2.92;;
66212;SDS011;53015;50.046;8.238;2023-07-29T05:46:42;8.80;;;3.03;;
66212;SDS011;53015;50.046;8.238;2023-07-29T05:49:07;4.38;;;3.20;;
66212;SDS011;53015;50.046;8.238;2023-07-29T05:51:33;5.72;;;2.92;;
66212;SDS011;53015;50.046;8.238;2023-07-29T05:53:58;3.08;;;2.78;;
66212;SDS011;53015;50.046;8.238;2023-07-29T05:56:27;5.00;;;2.97;;
66212;SDS011;53015;50.046;8.238;2023-07-29T05:58:52;3.97;;;2.95;;
66212;SDS011;53015;50.046;8.238;2023-07-29T06:01:18;7.40;;;3.13;;
66212;SDS011;53015;50.046;8.238;2023-07-29T06:03:43;10.00;;;3.20;;
66212;SDS011;53015;50.046;8.238;2023-07-29T06:06:09;4.15;;;3.10;;
66212;SDS011;53015;50.046;8.238;2023-07-29T06:08:34;7.55;;;2.53;;
66212;SDS011;53015;50.046;8.238;2023-07-29T06:11:00;3.92;;;2.40;;
66212;SDS011;53015;50.046;8.238;2023-07-29T06:13:27;3.50;;;2.38;;
66212;SDS011;53015;50.046;8.238;2023-07-29T06:15:52;3.08;;;2.13;;
66212;SDS011;53015;50.046;8.238;2023-07-29T06:18:18;5.93;;;2.00;;
66212;SDS011;53015;50.046;8.238;2023-07-29T06:20:43;4.40;;;2.50;;
66212;SDS011;53015;50.046;8.238;2023-07-29T06:23:09;3.97;;;2.22;;
66212;SDS011;53015;50.046;8.238;2023-07-29T06:25:34;7.88;;;1.85;;
66212;SDS011;53015;50.046;8.238;2023-07-29T06:28:00;5.07;;;2.53;;
66212;SDS011;53015;50.046;8.238;2023-07-29T06:30:26;4.13;;;2.20;;
66212;SDS011;53015;50.046;8.238;2023-07-29T06:32:52;4.00;;;2.15;;
66212;SDS011;53015;50.046;8.238;2023-07-29T06:35:17;3.60;;;2.10;;
66212;SDS011;53015;50.046;8.238;2023-07-29T06:37:43;3.17;;;2.10;;
66212;SDS011;53015;50.046;8.238;2023-07-29T06:40:09;4.20;;;2.38;;
66212;SDS011;53015;50.046;8.238;2023-07-29T06:42:35;2.40;;;2.00;;
66212;SDS011;53015;50.046;8.238;2023-07-29T06:45:00;2.33;;;2.00;;
66212;SDS011;53015;50.046;8.238;2023-07-29T06:47:27;5.35;;;2.20;;
66212;SDS011;53015;50.046;8.238;2023-07-29T06:49:53;7.47;;;2.30;;
66212;SDS011;53015;50.046;8.238;2023-07-29T06:52:19;5.18;;;2.10;;
66212;SDS011;53015;50.046;8.238;2023-07-29T06:54:44;7.22;;;2.45;;
66212;SDS011;53015;50.046;8.238;2023-07-29T06:57:10;3.22;;;2.30;;
66212;SDS011;53015;50.046;8.238;2023-07-29T06:59:35;3.55;;;2.20;;
66212;SDS011;53015;50.046;8.238;2023-07-29T07:02:00;3.72;;;2.35;;
66212;SDS011;53015;50.046;8.238;2023-07-29T07:04:27;3.80;;;2.03;;
66212;SDS011;53015;50.046;8.238;2023-07-29T07:06:53;2.60;;;2.13;;
66212;SDS011;53015;50.046;8.238;2023-07-29T07:09:19;12.35;;;2.60;;
66212;SDS011;53015;50.046;8.238;2023-07-29T07:11:44;3.80;;;2.42;;
66212;SDS011;53015;50.046;8.238;2023-07-29T07:14:10;4.18;;;2.70;;
66212;SDS011;53015;50.046;8.238;2023-07-29T07:16:35;5.43;;;2.45;;
66212;SDS011;53015;50.046;8.238;2023-07-29T07:19:01;4.43;;;2.50;;
66212;SDS011;53015;50.046;8.238;2023-07-29T07:21:28;5.65;;;2.58;;
66212;SDS011;53015;50.046;8.238;2023-07-29T07:23:53;4.78;;;2.65;;
66212;SDS011;53015;50.046;8.238;2023-07-29T07:26:18;3.50;;;2.50;;
66212;SDS011;53015;50.046;8.238;2023-07-29T07:28:44;3.42;;;1.90;;
66212;SDS011;53015;50.046;8.238;2023-07-29T07:31:09;3.38;;;1.80;;
66212;SDS011;53015;50.046;8.238;2023-07-29T07:33:35;2.00;;;1.80;;
66212;SDS011;53015;50.046;8.238;2023-07-29T07:36:00;4.13;;;1.90;;
66212;SDS011;53015;50.046;8.238;2023-07-29T07:38:27;3.33;;;2.00;;
66212;SDS011;53015;50.046;8.238;2023-07-29T07:40:53;3.03;;;1.80;;
66212;SDS011;53015;50.046;8.238;2023-07-29T07:43:19;4.47;;;1.65;;
66212;SDS011;53015;50.046;8.238;2023-07-29T07:45:44;1.90;;;1.70;;
66212;SDS011;53015;50.046;8.238;2023-07-29T07:48:10;2.67;;;2.20;;
66212;SDS011;53015;50.046;8.238;2023-07-29T07:50:35;3.20;;;1.75;;
66212;SDS011;53015;50.046;8.238;2023-07-29T07:53:01;2.30;;;1.70;;
66212;SDS011;53015;50.046;8.238;2023-07-29T07:55:27;2.50;;;1.73;;
66212;SDS011;53015;50.046;8.238;2023-07-29T07:57:53;2.95;;;1.60;;
66212;SDS011;53015;50.046;8.238;2023-07-29T08:00:18;3.22;;;1.80;;
66212;SDS011;53015;50.046;8.238;2023-07-29T08:02:44;3.47;;;2.10;;
66212;SDS011;53015;50.046;8.238;2023-07-29T08:05:09;4.15;;;1.95;;
66212;SDS011;53015;50.046;8.238;2023-07-29T08:07:35;1.95;;;1.80;;
66212;SDS011;53015;50.046;8.238;2023-07-29T08:10:00;3.65;;;1.88;;
66212;SDS011;53015;50.046;8.238;2023-07-29T08:12:27;3.35;;;1.70;;
66212;SDS011;53015;50.046;8.238;2023-07-29T08:14:53;2.00;;;1.80;;
66212;SDS011;53015;50.046;8.238;2023-07-29T08:17:18;3.22;;;1.60;;
66212;SDS011;53015;50.046;8.238;2023-07-29T08:19:43;1.80;;;1.50;;
66212;SDS011;53015;50.046;8.238;2023-07-29T08:22:09;2.70;;;1.52;;
66212;SDS011;53015;50.046;8.238;2023-07-29T08:24:35;3.30;;;1.50;;
66212;SDS011;53015;50.046;8.238;2023-07-29T08:27:02;1.83;;;1.30;;
66212;SDS011;53015;50.046;8.238;2023-07-29T08:29:28;1.88;;;1.75;;
66212;SDS011;53015;50.046;8.238;2023-07-29T08:31:54;3.85;;;1.60;;
66212;SDS011;53015;50.046;8.238;2023-07-29T08:34:19;1.73;;;1.60;;
66212;SDS011;53015;50.046;8.238;2023-07-29T08:36:45;3.50;;;1.30;;
66212;SDS011;53015;50.046;8.238;2023-07-29T08:39:10;3.47;;;1.55;;
66212;SDS011;53015;50.046;8.238;2023-07-29T08:41:37;2.15;;;1.40;;
66212;SDS011;53015;50.046;8.238;2023-07-29T08:44:11;3.70;;;1.52;;
66212;SDS011;53015;50.046;8.238;2023-07-29T08:46:43;1.42;;;1.20;;
66212;SDS011;53015;50.046;8.238;2023-07-29T08:49:11;3.47;;;1.58;;
66212;SDS011;53015;50.046;8.238;2023-07-29T08:51:37;2.35;;;1.30;;
66212;SDS011;53015;50.046;8.238;2023-07-29T08:54:03;1.45;;;1.10;;
66212;SDS011;53015;50.046;8.238;2023-07-29T08:56:29;2.63;;;1.48;;
66212;SDS011;53015;50.046;8.238;2023-07-29T08:58:55;3.10;;;1.50;;
66212;SDS011;53015;50.046;8.238;2023-07-29T09:01:20;1.58;;;1.17;;
66212;SDS011;53015;50.046;8.238;2023-07-29T09:03:47;1.00;;;0.90;;
66212;SDS011;53015;50.046;8.238;2023-07-29T09:06:13;2.35;;;1.10;;
66212;SDS011;53015;50.046;8.238;2023-07-29T09:08:39;4.47;;;1.10;;
66212;SDS011;53015;50.046;8.238;2023-07-29T09:11:05;1.80;;;0.95;;
66212;SDS011;53015;50.046;8.238;2023-07-29T09:13:31;4.47;;;1.15;;
66212;SDS011;53015;50.046;8.238;2023-07-29T09:15:57;2.08;;;1.20;;
66212;SDS011;53015;50.046;8.238;2023-07-29T09:18:23;0.90;;;0.85;;
66212;SDS011;53015;50.046;8.238;2023-07-29T09:20:52;1.15;;;1.00;;
66212;SDS011;53015;50.046;8.238;2023-07-29T09:23:18;2.33;;;1.10;;
66212;SDS011;53015;50.046;8.238;2023-07-29T09:25:43;2.58;;;1.45;;
66212;SDS011;53015;50.046;8.238;2023-07-29T09:28:11;5.43;;;1.20;;
66212;SDS011;53015;50.046;8.238;2023-07-29T09:30:38;2.22;;;1.20;;
66212;SDS011;53015;50.046;8.238;2023-07-29T09:33:03;1.73;;;0.90;;
66212;SDS011;53015;50.046;8.238;2023-07-29T09:35:30;1.23;;;1.05;;
66212;SDS011;53015;50.046;8.238;2023-07-29T09:37:59;2.60;;;1.15;;
66212;SDS011;53015;50.046;8.238;2023-07-29T09:40:24;1.10;;;1.00;;
66212;SDS011;53015;50.046;8.238;2023-07-29T09:42:50;1.55;;;1.00;;
66212;SDS011;53015;50.046;8.238;2023-07-29T09:45:20;4.20;;;1.10;;
66212;SDS011;53015;50.046;8.238;2023-07-29T09:47:47;5.22;;;1.10;;
66212;SDS011;53015;50.046;8.238;2023-07-29T09:50:12;1.23;;;1.10;;
66212;SDS011;53015;50.046;8.238;2023-07-29T09:52:38;1.77;;;1.20;;
66212;SDS011;53015;50.046;8.238;2023-07-29T09:55:05;2.17;;;0.90;;
66212;SDS011;53015;50.046;8.238;2023-07-29T09:57:31;3.03;;;0.90;;
66212;SDS011;53015;50.046;8.238;2023-07-29T09:59:57;2.33;;;1.08;;
66212;SDS011;53015;50.046;8.238;2023-07-29T10:02:23;1.00;;;1.00;;
66212;SDS011;53015;50.046;8.238;2023-07-29T10:04:50;1.25;;;0.90;;
66212;SDS011;53015;50.046;8.238;2023-07-29T10:07:16;0.90;;;0.90;;
66212;SDS011;53015;50.046;8.238;2023-07-29T10:09:43;2.30;;;0.90;;
66212;SDS011;53015;50.046;8.238;2023-07-29T10:12:12;2.30;;;0.95;;
66212;SDS011;53015;50.046;8.238;2023-07-29T10:14:38;1.35;;;1.00;;
66212;SDS011;53015;50.046;8.238;2023-07-29T10:17:04;1.17;;;0.90;;
66212;SDS011;53015;50.046;8.238;2023-07-29T10:19:30;1.80;;;0.98;;
66212;SDS011;53015;50.046;8.238;2023-07-29T10:21:58;1.23;;;0.80;;
66212;SDS011;53015;50.046;8.238;2023-07-29T10:24:25;1.05;;;0.77;;
66212;SDS011;53015;50.046;8.238;2023-07-29T10:26:56;2.05;;;0.90;;
66212;SDS011;53015;50.046;8.238;2023-07-29T10:29:24;1.40;;;0.80;;
66212;SDS011;53015;50.046;8.238;2023-07-29T10:31:54;0.98;;;0.88;;
66212;SDS011;53015;50.046;8.238;2023-07-29T10:34:26;1.80;;;0.90;;
66212;SDS011;53015;50.046;8.238;2023-07-29T10:36:52;1.10;;;1.00;;
66212;SDS011;53015;50.046;8.238;2023-07-29T10:39:18;2.88;;;1.13;;
66212;SDS011;53015;50.046;8.238;2023-07-29T10:41:57;4.25;;;1.33;;
66212;SDS011;53015;50.046;8.238;2023-07-29T10:47:14;1.48;;;1.10;;
66212;SDS011;53015;50.046;8.238;2023-07-29T10:49:40;2.00;;;1.20;;
66212;SDS011;53015;50.046;8.238;2023-07-29T10:52:06;5.78;;;1.30;;
66212;SDS011;53015;50.046;8.238;2023-07-29T10:54:32;3.17;;;1.00;;
66212;SDS011;53015;50.046;8.238;2023-07-29T10:57:07;4.72;;;1.13;;
66212;SDS011;53015;50.046;8.238;2023-07-29T10:59:32;3.10;;;1.02;;
66212;SDS011;53015;50.046;8.238;2023-07-29T11:02:00;2.72;;;1.10;;
66212;SDS011;53015;50.046;8.238;2023-07-29T11:04:26;1.55;;;1.10;;
66212;SDS011;53015;50.046;8.238;2023-07-29T11:09:51;3.80;;;1.38;;
66212;SDS011;53015;50.046;8.238;2023-07-29T11:12:34;1.85;;;1.10;;
66212;SDS011;53015;50.046;8.238;2023-07-29T11:15:04;1.25;;;0.85;;
66212;SDS011;53015;50.046;8.238;2023-07-29T11:17:38;1.67;;;0.80;;
66212;SDS011;53015;50.046;8.238;2023-07-29T11:20:05;3.42;;;1.17;;
66212;SDS011;53015;50.046;8.238;2023-07-29T11:22:32;0.98;;;0.80;;
66212;SDS011;53015;50.046;8.238;2023-07-29T11:24:58;2.35;;;1.00;;
66212;SDS011;53015;50.046;8.238;2023-07-29T11:27:24;2.97;;;0.93;;
66212;SDS011;53015;50.046;8.238;2023-07-29T11:29:49;1.23;;;1.00;;
66212;SDS011;53015;50.046;8.238;2023-07-29T11:32:15;3.33;;;1.00;;
66212;SDS011;53015;50.046;8.238;2023-07-29T11:34:42;1.98;;;0.82;;
66212;SDS011;53015;50.046;8.238;2023-07-29T11:37:09;0.75;;;0.75;;
66212;SDS011;53015;50.046;8.238;2023-07-29T11:39:39;1.42;;;1.13;;
66212;SDS011;53015;50.046;8.238;2023-07-29T11:42:05;2.35;;;0.73;;
66212;SDS011;53015;50.046;8.238;2023-07-29T11:44:30;0.90;;;0.90;;
66212;SDS011;53015;50.046;8.238;2023-07-29T11:46:56;2.50;;;1.00;;
66212;SDS011;53015;50.046;8.238;2023-07-29T11:49:21;2.95;;;1.10;;
66212;SDS011;53015;50.046;8.238;2023-07-29T11:51:48;0.90;;;0.90;;
66212;SDS011;53015;50.046;8.238;2023-07-29T11:54:14;1.63;;;1.00;;
66212;SDS011;53015;50.046;8.238;2023-07-29T11:56:40;1.30;;;0.80;;
66212;SDS011;53015;50.046;8.238;2023-07-29T11:59:06;1.20;;;1.00;;
66212;SDS011;53015;50.046;8.238;2023-07-29T12:01:31;1.63;;;1.00;;
66212;SDS011;53015;50.046;8.238;2023-07-29T12:03:57;1.10;;;1.00;;
66212;SDS011;53015;50.046;8.238;2023-07-29T12:06:23;1.05;;;0.90;;
66212;SDS011;53015;50.046;8.238;2023-07-29T12:08:51;0.98;;;0.98;;
66212;SDS011;53015;50.046;8.238;2023-07-29T12:11:17;1.42;;;0.80;;
66212;SDS011;53015;50.046;8.238;2023-07-29T12:13:43;0.80;;;0.80;;
66212;SDS011;53015;50.046;8.238;2023-07-29T12:16:08;2.85;;;0.80;;
66212;SDS011;53015;50.046;8.238;2023-07-29T12:18:35;1.13;;;1.02;;
66212;SDS011;53015;50.046;8.238;2023-07-29T12:21:01;1.75;;;1.17;;
66212;SDS011;53015;50.046;8.238;2023-07-29T12:23:27;0.80;;;0.80;;
66212;SDS011;53015;50.046;8.238;2023-07-29T12:25:57;1.13;;;0.95;;
66212;SDS011;53015;50.046;8.238;2023-07-29T12:28:23;0.93;;;0.93;;
66212;SDS011;53015;50.046;8.238;2023-07-29T12:30:52;5.07;;;1.00;;
66212;SDS011;53015;50.046;8.238;2023-07-29T12:33:29;3.85;;;0.93;;
66212;SDS011;53015;50.046;8.238;2023-07-29T12:35:54;1.17;;;1.10;;
66212;SDS011;53015;50.046;8.238;2023-07-29T12:38:20;1.42;;;1.08;;
66212;SDS011;53015;50.046;8.238;2023-07-29T12:40:46;1.63;;;1.02;;
66212;SDS011;53015;50.046;8.238;2023-07-29T12:43:13;1.17;;;1.08;;
66212;SDS011;53015;50.046;8.238;2023-07-29T12:45:38;2.25;;;1.10;;
66212;SDS011;53015;50.046;8.238;2023-07-29T12:48:04;1.40;;;0.88;;
66212;SDS011;53015;50.046;8.238;2023-07-29T12:50:29;1.73;;;1.00;;
66212;SDS011;53015;50.046;8.238;2023-07-29T12:52:55;2.25;;;1.17;;
66212;SDS011;53015;50.046;8.238;2023-07-29T12:55:21;1.35;;;0.98;;
66212;SDS011;53015;50.046;8.238;2023-07-29T12:57:46;1.10;;;0.98;;
66212;SDS011;53015;50.046;8.238;2023-07-29T13:00:13;2.65;;;0.98;;
66212;SDS011;53015;50.046;8.238;2023-07-29T13:02:39;1.73;;;1.02;;
66212;SDS011;53015;50.046;8.238;2023-07-29T13:05:05;0.98;;;0.98;;
66212;SDS011;53015;50.046;8.238;2023-07-29T13:07:31;1.23;;;1.10;;
66212;SDS011;53015;50.046;8.238;2023-07-29T13:09:57;2.60;;;0.95;;
66212;SDS011;53015;50.046;8.238;2023-07-29T13:12:22;0.95;;;0.90;;
66212;SDS011;53015;50.046;8.238;2023-07-29T13:14:47;1.23;;;1.13;;
66212;SDS011;53015;50.046;8.238;2023-07-29T13:17:14;1.33;;;1.23;;
66212;SDS011;53015;50.046;8.238;2023-07-29T13:19:40;2.47;;;1.23;;
66212;SDS011;53015;50.046;8.238;2023-07-29T13:22:06;2.72;;;1.20;;
66212;SDS011;53015;50.046;8.238;2023-07-29T13:24:31;3.25;;;1.40;;
66212;SDS011;53015;50.046;8.238;2023-07-29T13:26:56;1.27;;;1.00;;
66212;SDS011;53015;50.046;8.238;2023-07-29T13:29:22;1.67;;;1.17;;
66212;SDS011;53015;50.046;8.238;2023-07-29T13:31:47;1.20;;;1.10;;
66212;SDS011;53015;50.046;8.238;2023-07-29T13:34:14;0.93;;;0.80;;
66212;SDS011;53015;50.046;8.238;2023-07-29T13:36:40;1.30;;;1.20;;
66212;SDS011;53015;50.046;8.238;2023-07-29T13:39:05;1.10;;;0.90;;
66212;SDS011;53015;50.046;8.238;2023-07-29T13:41:31;1.10;;;1.00;;
66212;SDS011;53015;50.046;8.238;2023-07-29T13:43:56;1.42;;;0.93;;
66212;SDS011;53015;50.046;8.238;2023-07-29T13:46:22;1.20;;;1.13;;
66212;SDS011;53015;50.046;8.238;2023-07-29T13:48:47;1.48;;;0.70;;
66212;SDS011;53015;50.046;8.238;2023-07-29T13:51:14;1.45;;;0.90;;
66212;SDS011;53015;50.046;8.238;2023-07-29T13:53:39;0.93;;;0.85;;
66212;SDS011;53015;50.046;8.238;2023-07-29T13:56:05;1.88;;;0.93;;
66212;SDS011;53015;50.046;8.238;2023-07-29T13:58:30;2.50;;;0.90;;
66212;SDS011;53015;50.046;8.238;2023-07-29T14:00:56;1.85;;;1.33;;
66212;SDS011;53015;50.046;8.238;2023-07-29T14:03:21;1.95;;;1.10;;
66212;SDS011;53015;50.046;8.238;2023-07-29T14:05:47;0.95;;;0.95;;
66212;SDS011;53015;50.046;8.238;2023-07-29T14:08:13;2.40;;;1.80;;
66212;SDS011;53015;50.046;8.238;2023-07-29T14:10:39;1.45;;;0.90;;
66212;SDS011;53015;50.046;8.238;2023-07-29T14:13:04;1.45;;;1.00;;
66212;SDS011;53015;50.046;8.238;2023-07-29T14:15:30;1.20;;;1.10;;
66212;SDS011;53015;50.046;8.238;2023-07-29T14:17:55;1.05;;;0.88;;
66212;SDS011;53015;50.046;8.238;2023-07-29T14:20:21;1.20;;;0.93;;
66212;SDS011;53015;50.046;8.238;2023-07-29T14:22:46;2.33;;;1.00;;
66212;SDS011;53015;50.046;8.238;2023-07-29T14:25:13;1.60;;;1.20;;
66212;SDS011;53015;50.046;8.238;2023-07-29T14:27:39;1.52;;;1.10;;
66212;SDS011;53015;50.046;8.238;2023-07-29T14:30:05;1.08;;;1.00;;
66212;SDS011;53015;50.046;8.238;2023-07-29T14:32:31;1.85;;;0.93;;
66212;SDS011;53015;50.046;8.238;2023-07-29T14:34:56;0.85;;;0.85;;
66212;SDS011;53015;50.046;8.238;2023-07-29T14:37:22;1.05;;;1.05;;
66212;SDS011;53015;50.046;8.238;2023-07-29T14:39:47;1.05;;;0.95;;
66212;SDS011;53015;50.046;8.238;2023-07-29T14:42:14;1.65;;;0.88;;
66212;SDS011;53015;50.046;8.238;2023-07-29T14:44:40;3.63;;;0.88;;
66212;SDS011;53015;50.046;8.238;2023-07-29T14:47:07;1.73;;;0.90;;